sensor_id;sensor_type;location;lat;lon;timestamp;pressure;altitude;pressure_sealevel;temperature;humidity
12879;BME280;20617;49.476;10.986;2023-04-04T00:01:17;99185.06;;;2.60;100.00
12879;BME280;20617;49.476;10.986;2023-04-04T00:03:22;99183.38;;;2.65;100.00
12879;BME280;20617;49.476;10.986;2023-04-04T00:05:27;99184.22;;;2.67;100.00
12879;BME280;20617;49.476;10.986;2023-04-04T00:07:35;99189.41;;;2.74;100.00
12879;BME280;20617;49.476;10.986;2023-04-04T00:09:40;99181.69;;;2.75;100.00
12879;BME280;20617;49.476;10.986;2023-04-04T00:11:44;99183.44;;;2.81;100.00
12879;BME280;20617;49.476;10.986;2023-04-04T00:13:49;99180.00;;;2.85;100.00
12879;BME280;20617;49.476;10.986;2023-04-04T00:15:54;99183.47;;;2.91;100.00
12879;BME280;20617;49.476;10.986;2023-04-04T00:17:59;99181.75;;;2.92;100.00
12879;BME280;20617;49.476;10.986;2023-04-04T00:20:06;99173.19;;;2.99;100.00
12879;BME280;20617;49.476;10.986;2023-04-04T00:22:11;99176.66;;;3.04;100.00
12879;BME280;20617;49.476;10.986;2023-04-04T00:24:18;99173.25;;;3.11;100.00
12879;BME280;20617;49.476;10.986;2023-04-04T00:26:24;99178.41;;;3.22;100.00
12879;BME280;20617;49.476;10.986;2023-04-04T00:28:29;99178.44;;;3.27;100.00
12879;BME280;20617;49.476;10.986;2023-04-04T00:30:34;99168.13;;;3.30;100.00
12879;BME280;20617;49.476;10.986;2023-04-04T00:32:39;99155.28;;;3.33;100.00
12879;BME280;20617;49.476;10.986;2023-04-04T00:34:44;99164.72;;;3.38;100.00
12879;BME280;20617;49.476;10.986;2023-04-04T00:36:49;99169.00;;;3.46;100.00
12879;BME280;20617;49.476;10.986;2023-04-04T00:38:54;99164.75;;;3.46;100.00
12879;BME280;20617;49.476;10.986;2023-04-04T00:41:02;99164.75;;;3.52;100.00
12879;BME280;20617;49.476;10.986;2023-04-04T00:43:07;99166.44;;;3.53;100.00
12879;BME280;20617;49.476;10.986;2023-04-04T00:45:13;99169.03;;;3.58;100.00
12879;BME280;20617;49.476;10.986;2023-04-04T00:47:18;99164.72;;;3.60;100.00
12879;BME280;20617;49.476;10.986;2023-04-04T00:49:25;99156.16;;;3.64;100.00
12879;BME280;20617;49.476;10.986;2023-04-04T00:51:30;99155.31;;;3.68;100.00
12879;BME280;20617;49.476;10.986;2023-04-04T00:53:36;99158.75;;;3.67;100.00
12879;BME280;20617;49.476;10.986;2023-04-04T00:55:40;99153.59;;;3.62;100.00
12879;BME280;20617;49.476;10.986;2023-04-04T00:57:48;99153.59;;;3.56;100.00
12879;BME280;20617;49.476;10.986;2023-04-04T00:59:55;99154.44;;;3.54;100.00
12879;BME280;20617;49.476;10.986;2023-04-04T01:02:01;99160.44;;;3.56;100.00
12879;BME280;20617;49.476;10.986;2023-04-04T01:04:07;99154.44;;;3.61;100.00
12879;BME280;20617;49.476;10.986;2023-04-04T01:06:12;99137.25;;;3.63;100.00
12879;BME280;20617;49.476;10.986;2023-04-04T01:08:21;99145.88;;;3.67;100.00
12879;BME280;20617;49.476;10.986;2023-04-04T01:10:28;99145.88;;;3.61;100.00
12879;BME280;20617;49.476;10.986;2023-04-04T01:12:34;99149.31;;;3.58;100.00
12879;BME280;20617;49.476;10.986;2023-04-04T01:14:42;99149.28;;;3.60;100.00
12879;BME280;20617;49.476;10.986;2023-04-04T01:16:48;99147.59;;;3.62;100.00
12879;BME280;20617;49.476;10.986;2023-04-04T01:18:57;99148.44;;;3.64;100.00
12879;BME280;20617;49.476;10.986;2023-04-04T01:21:07;99149.28;;;3.63;100.00
12879;BME280;20617;49.476;10.986;2023-04-04T01:23:15;99152.72;;;3.62;100.00
12879;BME280;20617;49.476;10.986;2023-04-04T01:25:28;99141.56;;;3.63;100.00
12879;BME280;20617;49.476;10.986;2023-04-04T01:27:42;99142.44;;;3.65;99.88
12879;BME280;20617;49.476;10.986;2023-04-04T01:29:50;99144.16;;;3.58;96.12
12879;BME280;20617;49.476;10.986;2023-04-04T01:31:59;99141.56;;;3.51;96.10
12879;BME280;20617;49.476;10.986;2023-04-04T01:34:10;99145.00;;;3.37;92.76
12879;BME280;20617;49.476;10.986;2023-04-04T01:36:20;99140.69;;;3.39;92.91
12879;BME280;20617;49.476;10.986;2023-04-04T01:38:32;99134.69;;;3.34;90.61
12879;BME280;20617;49.476;10.986;2023-04-04T01:40:44;99137.28;;;3.40;91.61
12879;BME280;20617;49.476;10.986;2023-04-04T01:42:53;99146.72;;;3.42;91.02
12879;BME280;20617;49.476;10.986;2023-04-04T01:45:02;99141.59;;;3.46;89.89
12879;BME280;20617;49.476;10.986;2023-04-04T01:47:11;99146.72;;;3.45;87.61
12879;BME280;20617;49.476;10.986;2023-04-04T01:49:16;99140.72;;;3.35;82.02
12879;BME280;20617;49.476;10.986;2023-04-04T01:51:21;99144.13;;;3.20;79.10
12879;BME280;20617;49.476;10.986;2023-04-04T01:53:28;99140.66;;;3.10;80.14
12879;BME280;20617;49.476;10.986;2023-04-04T01:55:33;99145.78;;;3.01;80.33
12879;BME280;20617;49.476;10.986;2023-04-04T01:57:41;99134.63;;;2.91;81.72
12879;BME280;20617;49.476;10.986;2023-04-04T01:59:46;99136.28;;;2.80;83.27
12879;BME280;20617;49.476;10.986;2023-04-04T02:01:51;99136.28;;;2.71;85.50
12879;BME280;20617;49.476;10.986;2023-04-04T02:03:56;99139.66;;;2.67;86.04
12879;BME280;20617;49.476;10.986;2023-04-04T02:06:01;99138.78;;;2.60;87.63
12879;BME280;20617;49.476;10.986;2023-04-04T02:08:06;99136.19;;;2.56;88.64
12879;BME280;20617;49.476;10.986;2023-04-04T02:10:20;99143.88;;;2.48;89.12
12879;BME280;20617;49.476;10.986;2023-04-04T02:12:25;99136.16;;;2.46;89.40
12879;BME280;20617;49.476;10.986;2023-04-04T02:14:33;99131.03;;;2.48;91.10
12879;BME280;20617;49.476;10.986;2023-04-04T02:16:39;99135.28;;;2.43;90.51
12879;BME280;20617;49.476;10.986;2023-04-04T02:18:44;99131.81;;;2.38;90.82
12879;BME280;20617;49.476;10.986;2023-04-04T02:20:54;99129.28;;;2.36;91.70
12879;BME280;20617;49.476;10.986;2023-04-04T02:23:00;99130.09;;;2.35;92.25
12879;BME280;20617;49.476;10.986;2023-04-04T02:25:05;99123.22;;;2.33;92.49
12879;BME280;20617;49.476;10.986;2023-04-04T02:27:09;99127.50;;;2.28;93.28
12879;BME280;20617;49.476;10.986;2023-04-04T02:29:14;99137.75;;;2.21;94.12
12879;BME280;20617;49.476;10.986;2023-04-04T02:31:23;99130.06;;;2.21;94.75
12879;BME280;20617;49.476;10.986;2023-04-04T02:33:29;99127.47;;;2.18;95.82
12879;BME280;20617;49.476;10.986;2023-04-04T02:35:40;99124.00;;;2.12;96.43
12879;BME280;20617;49.476;10.986;2023-04-04T02:37:45;99121.41;;;2.04;98.01
12879;BME280;20617;49.476;10.986;2023-04-04T02:40:00;99119.66;;;2.03;98.71
12879;BME280;20617;49.476;10.986;2023-04-04T02:42:10;99120.50;;;2.00;99.94
12879;BME280;20617;49.476;10.986;2023-04-04T02:44:15;99117.09;;;2.04;100.00
12879;BME280;20617;49.476;10.986;2023-04-04T02:46:25;99116.22;;;1.99;100.00
12879;BME280;20617;49.476;10.986;2023-04-04T02:48:35;99118.78;;;1.98;100.00
12879;BME280;20617;49.476;10.986;2023-04-04T02:50:41;99114.47;;;1.97;100.00
12879;BME280;20617;49.476;10.986;2023-04-04T02:52:47;99111.09;;;1.98;100.00
12879;BME280;20617;49.476;10.986;2023-04-04T02:54:52;99118.75;;;1.96;100.00
12879;BME280;20617;49.476;10.986;2023-04-04T02:57:05;99118.72;;;1.92;100.00
12879;BME280;20617;49.476;10.986;2023-04-04T02:59:10;99118.69;;;1.86;100.00
12879;BME280;20617;49.476;10.986;2023-04-04T03:01:15;99116.09;;;1.83;100.00
12879;BME280;20617;49.476;10.986;2023-04-04T03:03:22;99116.09;;;1.78;100.00
12879;BME280;20617;49.476;10.986;2023-04-04T03:05:29;99116.03;;;1.73;100.00
12879;BME280;20617;49.476;10.986;2023-04-04T03:07:35;99107.50;;;1.73;100.00
12879;BME280;20617;49.476;10.986;2023-04-04T03:09:40;99108.38;;;1.75;100.00
12879;BME280;20617;49.476;10.986;2023-04-04T03:11:46;99109.19;;;1.72;100.00
12879;BME280;20617;49.476;10.986;2023-04-04T03:13:51;99112.56;;;1.68;100.00
12879;BME280;20617;49.476;10.986;2023-04-04T03:16:06;99113.41;;;1.61;100.00
12879;BME280;20617;49.476;10.986;2023-04-04T03:18:19;99112.53;;;1.57;100.00
12879;BME280;20617;49.476;10.986;2023-04-04T03:20:27;99117.66;;;1.57;100.00
12879;BME280;20617;49.476;10.986;2023-04-04T03:22:32;99110.78;;;1.55;100.00
12879;BME280;20617;49.476;10.986;2023-04-04T03:24:37;99108.19;;;1.53;100.00
12879;BME280;20617;49.476;10.986;2023-04-04T03:26:42;99109.88;;;1.50;100.00
12879;BME280;20617;49.476;10.986;2023-04-04T03:28:47;99108.16;;;1.50;100.00
12879;BME280;20617;49.476;10.986;2023-04-04T03:30:54;99100.44;;;1.47;100.00
12879;BME280;20617;49.476;10.986;2023-04-04T03:33:02;99107.22;;;1.38;100.00
12879;BME280;20617;49.476;10.986;2023-04-04T03:35:09;99107.13;;;1.27;100.00
12879;BME280;20617;49.476;10.986;2023-04-04T03:37:17;99108.03;;;1.32;100.00
12879;BME280;20617;49.476;10.986;2023-04-04T03:39:26;99108.03;;;1.33;100.00
12879;BME280;20617;49.476;10.986;2023-04-04T03:41:34;99112.31;;;1.36;100.00
12879;BME280;20617;49.476;10.986;2023-04-04T03:43:40;99108.94;;;1.37;100.00
12879;BME280;20617;49.476;10.986;2023-04-04T03:45:46;99104.63;;;1.36;100.00
12879;BME280;20617;49.476;10.986;2023-04-04T03:47:51;99109.75;;;1.36;100.00
12879;BME280;20617;49.476;10.986;2023-04-04T03:49:56;99107.13;;;1.25;100.00
12879;BME280;20617;49.476;10.986;2023-04-04T03:52:02;99105.31;;;1.15;100.00
12879;BME280;20617;49.476;10.986;2023-04-04T03:54:10;99099.41;;;1.22;100.00
12879;BME280;20617;49.476;10.986;2023-04-04T03:56:15;99103.66;;;1.22;100.00
12879;BME280;20617;49.476;10.986;2023-04-04T03:58:20;99102.81;;;1.24;100.00
12879;BME280;20617;49.476;10.986;2023-04-04T04:00:25;99113.94;;;1.23;100.00
12879;BME280;20617;49.476;10.986;2023-04-04T04:02:30;99108.75;;;1.17;100.00
12879;BME280;20617;49.476;10.986;2023-04-04T04:04:35;99109.56;;;1.13;100.00
12879;BME280;20617;49.476;10.986;2023-04-04T04:06:40;99112.09;;;1.08;100.00
12879;BME280;20617;49.476;10.986;2023-04-04T04:08:45;99106.91;;;1.04;100.00
12879;BME280;20617;49.476;10.986;2023-04-04T04:10:53;99108.59;;;1.00;100.00
12879;BME280;20617;49.476;10.986;2023-04-04T04:12:58;99106.91;;;1.04;100.00
12879;BME280;20617;49.476;10.986;2023-04-04T04:15:08;99114.63;;;1.05;100.00
12879;BME280;20617;49.476;10.986;2023-04-04T04:17:15;99112.94;;;1.09;100.00
12879;BME280;20617;49.476;10.986;2023-04-04T04:19:21;99106.16;;;1.16;100.00
12879;BME280;20617;49.476;10.986;2023-04-04T04:21:26;99109.59;;;1.15;100.00
12879;BME280;20617;49.476;10.986;2023-04-04T04:23:31;99107.88;;;1.13;100.00
12879;BME280;20617;49.476;10.986;2023-04-04T04:25:36;99106.16;;;1.14;100.00
12879;BME280;20617;49.476;10.986;2023-04-04T04:27:54;99099.28;;;1.10;100.00
12879;BME280;20617;49.476;10.986;2023-04-04T04:30:01;99112.91;;;1.06;100.00
12879;BME280;20617;49.476;10.986;2023-04-04T04:32:14;99104.38;;;1.05;100.00
12879;BME280;20617;49.476;10.986;2023-04-04T04:34:23;99105.19;;;1.04;100.00
12879;BME280;20617;49.476;10.986;2023-04-04T04:36:33;99108.59;;;1.02;100.00
12879;BME280;20617;49.476;10.986;2023-04-04T04:38:58;99105.16;;;1.00;100.00
12879;BME280;20617;49.476;10.986;2023-04-04T04:41:07;99106.00;;;0.97;100.00
12879;BME280;20617;49.476;10.986;2023-04-04T04:43:20;99108.50;;;0.91;100.00
12879;BME280;20617;49.476;10.986;2023-04-04T04:45:25;99104.22;;;0.92;100.00
12879;BME280;20617;49.476;10.986;2023-04-04T04:47:40;99105.97;;;0.94;100.00
12879;BME280;20617;49.476;10.986;2023-04-04T04:49:49;99113.72;;;1.00;100.00
12879;BME280;20617;49.476;10.986;2023-04-04T04:52:05;99111.97;;;0.96;100.00
12879;BME280;20617;49.476;10.986;2023-04-04T04:54:15;99114.47;;;0.93;100.00
12879;BME280;20617;49.476;10.986;2023-04-04T04:56:25;99114.44;;;0.88;100.00
12879;BME280;20617;49.476;10.986;2023-04-04T04:58:40;99122.16;;;0.93;100.00
12879;BME280;20617;49.476;10.986;2023-04-04T05:00:54;99113.66;;;0.94;100.00
12879;BME280;20617;49.476;10.986;2023-04-04T05:03:08;99112.81;;;0.95;100.00
12879;BME280;20617;49.476;10.986;2023-04-04T05:05:20;99106.84;;;0.96;100.00
12879;BME280;20617;49.476;10.986;2023-04-04T05:07:29;99115.44;;;1.00;100.00
12879;BME280;20617;49.476;10.986;2023-04-04T05:09:34;99112.03;;;1.04;100.00
12879;BME280;20617;49.476;10.986;2023-04-04T05:11:40;99108.63;;;1.03;100.00
12879;BME280;20617;49.476;10.986;2023-04-04T05:13:49;99105.19;;;1.03;100.00
12879;BME280;20617;49.476;10.986;2023-04-04T05:15:54;99106.00;;;0.99;100.00
12879;BME280;20617;49.476;10.986;2023-04-04T05:18:00;99109.41;;;0.98;100.00
12879;BME280;20617;49.476;10.986;2023-04-04T05:20:05;99111.84;;;0.87;100.00
12879;BME280;20617;49.476;10.986;2023-04-04T05:22:12;99106.69;;;0.84;100.00
12879;BME280;20617;49.476;10.986;2023-04-04T05:24:22;99112.66;;;0.80;100.00
12879;BME280;20617;49.476;10.986;2023-04-04T05:26:27;99112.66;;;0.80;100.00
12879;BME280;20617;49.476;10.986;2023-04-04T05:28:32;99116.91;;;0.78;100.00
12879;BME280;20617;49.476;10.986;2023-04-04T05:30:42;99120.41;;;0.84;100.00
12879;BME280;20617;49.476;10.986;2023-04-04T05:32:54;99118.75;;;0.91;100.00
12879;BME280;20617;49.476;10.986;2023-04-04T05:35:03;99117.94;;;0.94;100.00
12879;BME280;20617;49.476;10.986;2023-04-04T05:37:09;99118.78;;;0.94;100.00
12879;BME280;20617;49.476;10.986;2023-04-04T05:39:15;99125.63;;;0.95;100.00
12879;BME280;20617;49.476;10.986;2023-04-04T05:41:32;99117.03;;;0.93;100.00
12879;BME280;20617;49.476;10.986;2023-04-04T05:43:45;99120.50;;;0.94;100.00
12879;BME280;20617;49.476;10.986;2023-04-04T05:45:57;99119.56;;;0.88;100.00
12879;BME280;20617;49.476;10.986;2023-04-04T05:48:09;99123.03;;;0.92;100.00
12879;BME280;20617;49.476;10.986;2023-04-04T05:50:22;99118.75;;;0.91;100.00
12879;BME280;20617;49.476;10.986;2023-04-04T05:52:34;99126.50;;;0.97;100.00
12879;BME280;20617;49.476;10.986;2023-04-04T05:54:40;99123.97;;;1.00;100.00
12879;BME280;20617;49.476;10.986;2023-04-04T05:56:50;99131.66;;;1.00;100.00
12879;BME280;20617;49.476;10.986;2023-04-04T05:59:28;99131.63;;;0.99;100.00
12879;BME280;20617;49.476;10.986;2023-04-04T06:01:40;99124.84;;;1.04;100.00
12879;BME280;20617;49.476;10.986;2023-04-04T06:03:48;99131.75;;;1.09;100.00
12879;BME280;20617;49.476;10.986;2023-04-04T06:05:58;99124.06;;;1.09;100.00
12879;BME280;20617;49.476;10.986;2023-04-04T06:08:07;99127.53;;;1.16;100.00
12879;BME280;20617;49.476;10.986;2023-04-04T06:10:12;99132.69;;;1.19;100.00
12879;BME280;20617;49.476;10.986;2023-04-04T06:12:17;99134.41;;;1.19;100.00
12879;BME280;20617;49.476;10.986;2023-04-04T06:14:22;99122.44;;;1.19;100.00
12879;BME280;20617;49.476;10.986;2023-04-04T06:16:27;99125.84;;;1.17;100.00
12879;BME280;20617;49.476;10.986;2023-04-04T06:18:35;99133.53;;;1.18;100.00
12879;BME280;20617;49.476;10.986;2023-04-04T06:20:40;99134.41;;;1.19;100.00
12879;BME280;20617;49.476;10.986;2023-04-04T06:22:45;99129.31;;;1.23;100.00
12879;BME280;20617;49.476;10.986;2023-04-04T06:24:51;99129.28;;;1.19;100.00
12879;BME280;20617;49.476;10.986;2023-04-04T06:26:58;99126.72;;;1.17;100.00
12879;BME280;20617;49.476;10.986;2023-04-04T06:29:03;99134.44;;;1.23;100.00
12879;BME280;20617;49.476;10.986;2023-04-04T06:31:11;99131.88;;;1.23;100.00
12879;BME280;20617;49.476;10.986;2023-04-04T06:33:17;99131.91;;;1.26;100.00
12879;BME280;20617;49.476;10.986;2023-04-04T06:35:26;99136.28;;;1.36;100.00
12879;BME280;20617;49.476;10.986;2023-04-04T06:37:33;99137.25;;;1.49;100.00
12879;BME280;20617;49.476;10.986;2023-04-04T06:39:47;99133.94;;;1.61;100.00
12879;BME280;20617;49.476;10.986;2023-04-04T06:41:56;99125.44;;;1.71;100.00
12879;BME280;20617;49.476;10.986;2023-04-04T06:44:03;99127.16;;;1.71;100.00
12879;BME280;20617;49.476;10.986;2023-04-04T06:46:10;99133.19;;;1.76;100.00
12879;BME280;20617;49.476;10.986;2023-04-04T06:48:15;99128.09;;;1.82;100.00
12879;BME280;20617;49.476;10.986;2023-04-04T06:50:20;99132.44;;;1.92;100.00
12879;BME280;20617;49.476;10.986;2023-04-04T06:52:28;99126.50;;;2.01;100.00
12879;BME280;20617;49.476;10.986;2023-04-04T06:54:33;99122.22;;;2.01;100.00
12879;BME280;20617;49.476;10.986;2023-04-04T06:56:38;99121.38;;;2.06;100.00
12879;BME280;20617;49.476;10.986;2023-04-04T06:58:43;99123.13;;;2.11;100.00
12879;BME280;20617;49.476;10.986;2023-04-04T07:00:48;99116.34;;;2.19;100.00
12879;BME280;20617;49.476;10.986;2023-04-04T07:02:56;99121.53;;;2.30;100.00
12879;BME280;20617;49.476;10.986;2023-04-04T07:05:01;99124.16;;;2.39;100.00
12879;BME280;20617;49.476;10.986;2023-04-04T07:07:06;99118.97;;;2.38;100.00
12879;BME280;20617;49.476;10.986;2023-04-04T07:09:13;99121.59;;;2.42;100.00
12879;BME280;20617;49.476;10.986;2023-04-04T07:11:30;99122.47;;;2.55;100.00
12879;BME280;20617;49.476;10.986;2023-04-04T07:13:35;99125.94;;;2.63;100.00
12879;BME280;20617;49.476;10.986;2023-04-04T07:15:44;99130.28;;;2.75;100.00
12879;BME280;20617;49.476;10.986;2023-04-04T07:17:51;99130.28;;;2.84;100.00
12879;BME280;20617;49.476;10.986;2023-04-04T07:19:56;99132.03;;;2.99;100.00
12879;BME280;20617;49.476;10.986;2023-04-04T07:22:03;99125.25;;;3.18;100.00
12879;BME280;20617;49.476;10.986;2023-04-04T07:24:08;99129.53;;;3.25;100.00
12879;BME280;20617;49.476;10.986;2023-04-04T07:26:16;99132.97;;;3.39;99.75
12879;BME280;20617;49.476;10.986;2023-04-04T07:28:21;99130.41;;;3.52;97.43
12879;BME280;20617;49.476;10.986;2023-04-04T07:30:26;99128.66;;;3.89;96.53
12879;BME280;20617;49.476;10.986;2023-04-04T07:32:33;99125.19;;;4.19;92.09
12879;BME280;20617;49.476;10.986;2023-04-04T07:34:39;99130.31;;;4.27;91.33
12879;BME280;20617;49.476;10.986;2023-04-04T07:36:45;99126.84;;;4.43;91.05
12879;BME280;20617;49.476;10.986;2023-04-04T07:38:50;99120.84;;;4.38;90.58
12879;BME280;20617;49.476;10.986;2023-04-04T07:40:55;99125.16;;;4.28;89.89
12879;BME280;20617;49.476;10.986;2023-04-04T07:43:02;99123.44;;;4.34;90.95
12879;BME280;20617;49.476;10.986;2023-04-04T07:45:08;99130.34;;;4.18;90.93
12879;BME280;20617;49.476;10.986;2023-04-04T07:47:13;99125.22;;;4.16;92.17
12879;BME280;20617;49.476;10.986;2023-04-04T07:49:18;99131.19;;;4.21;92.46
12879;BME280;20617;49.476;10.986;2023-04-04T07:51:24;99129.53;;;4.02;90.43
12879;BME280;20617;49.476;10.986;2023-04-04T07:53:32;99126.94;;;4.00;90.54
12879;BME280;20617;49.476;10.986;2023-04-04T07:55:37;99122.63;;;4.12;90.69
12879;BME280;20617;49.476;10.986;2023-04-04T07:57:42;99129.47;;;4.26;89.69
12879;BME280;20617;49.476;10.986;2023-04-04T07:59:50;99124.28;;;4.40;86.28
12879;BME280;20617;49.476;10.986;2023-04-04T08:01:55;99127.72;;;4.38;83.86
12879;BME280;20617;49.476;10.986;2023-04-04T08:04:00;99129.47;;;4.28;84.18
12879;BME280;20617;49.476;10.986;2023-04-04T08:06:06;99119.97;;;4.44;85.14
12879;BME280;20617;49.476;10.986;2023-04-04T08:08:12;99123.31;;;4.66;83.99
12879;BME280;20617;49.476;10.986;2023-04-04T08:10:17;99131.03;;;4.70;81.94
12879;BME280;20617;49.476;10.986;2023-04-04T08:12:22;99124.00;;;4.97;83.55
12879;BME280;20617;49.476;10.986;2023-04-04T08:14:27;99121.38;;;5.08;73.03
12879;BME280;20617;49.476;10.986;2023-04-04T08:16:35;99127.31;;;5.19;66.43
12879;BME280;20617;49.476;10.986;2023-04-04T08:18:40;99122.19;;;5.16;64.33
12879;BME280;20617;49.476;10.986;2023-04-04T08:20:45;99115.44;;;4.95;61.19
12879;BME280;20617;49.476;10.986;2023-04-04T08:22:50;99113.72;;;4.92;63.55
12879;BME280;20617;49.476;10.986;2023-04-04T08:24:55;99116.31;;;4.91;63.77
12879;BME280;20617;49.476;10.986;2023-04-04T08:27:01;99112.75;;;5.09;63.71
12879;BME280;20617;49.476;10.986;2023-04-04T08:29:06;99107.53;;;5.19;62.97
12879;BME280;20617;49.476;10.986;2023-04-04T08:31:11;99110.13;;;5.21;60.65
12879;BME280;20617;49.476;10.986;2023-04-04T08:33:19;99118.72;;;5.18;57.87
12879;BME280;20617;49.476;10.986;2023-04-04T08:35:35;99105.72;;;5.29;59.96
12879;BME280;20617;49.476;10.986;2023-04-04T08:37:43;99108.16;;;5.49;60.11
12879;BME280;20617;49.476;10.986;2023-04-04T08:39:48;99106.28;;;5.66;59.63
12879;BME280;20617;49.476;10.986;2023-04-04T08:41:59;99114.88;;;5.72;56.62
12879;BME280;20617;49.476;10.986;2023-04-04T08:44:07;99110.56;;;5.72;57.87
12879;BME280;20617;49.476;10.986;2023-04-04T08:46:14;99114.00;;;5.73;58.92
12879;BME280;20617;49.476;10.986;2023-04-04T08:48:23;99109.59;;;5.84;58.53
12879;BME280;20617;49.476;10.986;2023-04-04T08:50:31;99118.22;;;5.83;57.18
12879;BME280;20617;49.476;10.986;2023-04-04T08:52:39;99108.06;;;5.63;55.75
12879;BME280;20617;49.476;10.986;2023-04-04T08:54:44;99111.44;;;5.70;55.76
12879;BME280;20617;49.476;10.986;2023-04-04T08:56:50;99115.78;;;5.66;56.49
12879;BME280;20617;49.476;10.986;2023-04-04T08:58:55;99106.31;;;5.63;58.07
12879;BME280;20617;49.476;10.986;2023-04-04T09:01:00;99105.34;;;5.75;58.75
12879;BME280;20617;49.476;10.986;2023-04-04T09:03:09;99108.78;;;5.82;61.17
12879;BME280;20617;49.476;10.986;2023-04-04T09:05:21;99113.09;;;5.77;60.43
12879;BME280;20617;49.476;10.986;2023-04-04T09:07:27;99115.84;;;5.57;60.55
12879;BME280;20617;49.476;10.986;2023-04-04T09:09:33;99110.72;;;5.54;60.94
12879;BME280;20617;49.476;10.986;2023-04-04T09:11:39;99113.31;;;5.49;61.81
12879;BME280;20617;49.476;10.986;2023-04-04T09:13:44;99114.25;;;5.40;62.35
12879;BME280;20617;49.476;10.986;2023-04-04T09:15:52;99110.00;;;5.32;59.64
12879;BME280;20617;49.476;10.986;2023-04-04T09:17:58;99115.19;;;5.32;61.42
12879;BME280;20617;49.476;10.986;2023-04-04T09:20:39;99112.56;;;5.38;60.82
12879;BME280;20617;49.476;10.986;2023-04-04T09:22:45;99108.25;;;5.41;60.96
12879;BME280;20617;49.476;10.986;2023-04-04T09:24:50;99107.34;;;5.47;60.18
12879;BME280;20617;49.476;10.986;2023-04-04T09:26:55;99111.63;;;5.48;61.19
12879;BME280;20617;49.476;10.986;2023-04-04T09:28:59;99108.13;;;5.52;59.10
12879;BME280;20617;49.476;10.986;2023-04-04T09:31:06;99113.38;;;5.43;59.29
12879;BME280;20617;49.476;10.986;2023-04-04T09:33:13;99114.38;;;5.27;59.92
12879;BME280;20617;49.476;10.986;2023-04-04T09:35:19;99121.13;;;5.43;61.44
12879;BME280;20617;49.476;10.986;2023-04-04T09:37:27;99117.66;;;5.49;58.85
12879;BME280;20617;49.476;10.986;2023-04-04T09:39:32;99108.25;;;5.40;59.52
12879;BME280;20617;49.476;10.986;2023-04-04T09:41:38;99115.00;;;5.55;60.91
12879;BME280;20617;49.476;10.986;2023-04-04T09:43:44;99109.84;;;5.55;59.61
12879;BME280;20617;49.476;10.986;2023-04-04T09:45:49;99110.72;;;5.52;59.72
12879;BME280;20617;49.476;10.986;2023-04-04T09:47:56;99108.00;;;5.69;60.60
12879;BME280;20617;49.476;10.986;2023-04-04T09:50:01;99109.66;;;5.79;58.78
12879;BME280;20617;49.476;10.986;2023-04-04T09:52:16;99108.72;;;5.88;59.14
12879;BME280;20617;49.476;10.986;2023-04-04T09:54:24;99115.59;;;5.84;57.25
12879;BME280;20617;49.476;10.986;2023-04-04T09:56:32;99113.84;;;5.94;57.26
12879;BME280;20617;49.476;10.986;2023-04-04T09:58:40;99099.09;;;6.05;56.08
12879;BME280;20617;49.476;10.986;2023-04-04T10:01:08;99103.13;;;6.28;55.98
12879;BME280;20617;49.476;10.986;2023-04-04T10:03:14;99106.38;;;6.47;55.60
12879;BME280;20617;49.476;10.986;2023-04-04T10:05:19;99096.75;;;6.58;53.45
12879;BME280;20617;49.476;10.986;2023-04-04T10:07:25;99101.88;;;6.63;52.34
12879;BME280;20617;49.476;10.986;2023-04-04T10:09:35;99102.63;;;6.72;52.43
12879;BME280;20617;49.476;10.986;2023-04-04T10:11:41;99104.44;;;6.64;50.97
12879;BME280;20617;49.476;10.986;2023-04-04T10:13:46;99107.00;;;6.66;51.03
12879;BME280;20617;49.476;10.986;2023-04-04T10:15:56;99099.16;;;6.73;50.64
12879;BME280;20617;49.476;10.986;2023-04-04T10:18:03;99099.19;;;6.69;48.86
12879;BME280;20617;49.476;10.986;2023-04-04T10:20:10;99090.53;;;6.73;49.84
12879;BME280;20617;49.476;10.986;2023-04-04T10:22:16;99094.13;;;6.61;49.81
12879;BME280;20617;49.476;10.986;2023-04-04T10:24:21;99092.59;;;6.45;49.61
12879;BME280;20617;49.476;10.986;2023-04-04T10:26:29;99091.16;;;6.21;49.13
12879;BME280;20617;49.476;10.986;2023-04-04T10:28:34;99095.78;;;5.88;49.60
12879;BME280;20617;49.476;10.986;2023-04-04T10:30:41;99088.31;;;5.54;51.17
12879;BME280;20617;49.476;10.986;2023-04-04T10:33:08;99089.94;;;5.67;52.96
12879;BME280;20617;49.476;10.986;2023-04-04T10:35:20;99092.34;;;5.86;51.85
12879;BME280;20617;49.476;10.986;2023-04-04T10:37:27;99087.84;;;6.09;52.21
12879;BME280;20617;49.476;10.986;2023-04-04T10:39:37;99086.78;;;6.29;50.29
12879;BME280;20617;49.476;10.986;2023-04-04T10:41:49;99076.31;;;6.38;49.27
12879;BME280;20617;49.476;10.986;2023-04-04T10:43:59;99080.53;;;6.45;49.21
12879;BME280;20617;49.476;10.986;2023-04-04T10:46:07;99084.56;;;6.69;48.99
12879;BME280;20617;49.476;10.986;2023-04-04T10:48:15;99066.22;;;6.85;48.15
12879;BME280;20617;49.476;10.986;2023-04-04T10:50:20;99066.13;;;6.92;47.68
12879;BME280;20617;49.476;10.986;2023-04-04T10:52:30;99062.25;;;7.18;47.14
12879;BME280;20617;49.476;10.986;2023-04-04T10:54:35;99073.16;;;7.40;46.57
12879;BME280;20617;49.476;10.986;2023-04-04T10:56:40;99067.97;;;7.38;47.99
12879;BME280;20617;49.476;10.986;2023-04-04T10:58:48;99073.84;;;7.49;48.01
12879;BME280;20617;49.476;10.986;2023-04-04T11:00:54;99067.44;;;7.72;47.60
12879;BME280;20617;49.476;10.986;2023-04-04T11:03:00;99079.53;;;7.70;46.61
12879;BME280;20617;49.476;10.986;2023-04-04T11:05:09;99064.84;;;7.70;46.02
12879;BME280;20617;49.476;10.986;2023-04-04T11:07:15;99068.97;;;7.30;46.48
12879;BME280;20617;49.476;10.986;2023-04-04T11:09:49;99077.13;;;7.05;47.65
12879;BME280;20617;49.476;10.986;2023-04-04T11:12:10;99071.44;;;6.80;49.36